• Join FlightAware (Why Join?)
  • Login
  • US Flag 
10:58PM EST


 

Airport Tracker/Info


-or-


 

Live Flight TrackerFlight Track Log ✈ EJM685 ✈ 06-Jun-2013 ✈ KSLC - KTEB

Flight Track Log - Related Links

Times and Time Zones

All times are in EDT time to prevent confusion due to time zone crossing. See the EJM685 flight status page for this flight to view local times or setup timezone preferences in your user account.

Time Position Orientation Groundspeed Altitude Reporting Facility
EDT Latitude Longitude Course Direction KTS MPH feet Rate Location/Type
11:38PM 40.7994 -111.9647 North 202 232 5,000  Level Salt Lake Center
11:38PM 40.8183 -111.9631 North 241 277 5,900 2,580 Climbing Salt Lake Center
11:39PM 40.8811 -111.9733 353° North 228 262 8,600 3,120 Climbing Salt Lake Center
11:40PM 40.9536 -111.9744 359° North 261 300 12,300 3,300 Climbing Salt Lake Center
11:41PM 40.9867 -111.8828 64° Northeast 312 359 15,400 2,340 Climbing Salt Lake Center
11:42PM 41.0025 -111.7692 80° East 336 387 17,200 2,100 Climbing Salt Lake Center
11:43PM 41.0422 -111.6056 72° East 397 457 19,800 2,580 Climbing Salt Lake Center
11:44PM 41.0747 -111.4558 74° East 425 489 22,500 2,460 Climbing Salt Lake Center
11:45PM 41.1094 -111.3003 73° East 442 509 24,900 1,920 Climbing Salt Lake Center
11:46PM 41.1400 -111.1342 76° East 462 532 26,500 2,040 Climbing Salt Lake Center
11:47PM 41.1683 -110.9592 78° East 483 556 29,100 2,340 Climbing Salt Lake Center
11:48PM 41.1994 -110.7644 78° East 490 564 31,400 2,040 Climbing Salt Lake Center
11:49PM 41.2264 -110.5936 78° East 494 568 33,400 2,160 Climbing Salt Lake Center
11:50PM 41.2586 -110.3950 78° East 494 568 35,900 2,280 Climbing Salt Lake Center
11:51PM 41.2844 -110.2261 78° East 490 564 38,100 2,040 Climbing Salt Lake Center
11:52PM 41.3100 -110.0586 78° East 486 559 40,100 2,040 Climbing Salt Lake Center
11:53PM 41.3389 -109.8725 78° East 465 535 42,300 1,380 Climbing Salt Lake Center
11:54PM 41.3633 -109.7156 78° East 455 524 43,000 600 Climbing Salt Lake Center
11:55PM 41.3917 -109.5278 79° East 462 532 43,600 540 Climbing Salt Lake Center
11:56PM 41.4158 -109.3636 79° East 469 540 44,100 420 Climbing Salt Lake Center
11:57PM 41.4408 -109.1944 79° East 478 550 44,500 360 Climbing Salt Lake Center
11:58PM 41.4683 -109.0097 79° East 492 566 44,900 240 Climbing Salt Lake Center
12:00AM 41.4975 -108.8075 79° East 496 571 45,000  Climbing Salt Lake Center
12:01AM 41.5214 -108.6375 79° East 492 566 45,000  Level Salt Lake Center
12:02AM 41.5450 -108.4672 79° East 490 564 45,000  Level Salt Lake Center
12:03AM 41.5725 -108.2669 80° East 491 565 45,000  Level Salt Lake Center
12:04AM 41.5964 -108.0944 79° East 492 566 45,000  Level Salt Lake Center
12:05AM 41.6231 -107.8942 80° East 492 566 45,000  Level Salt Lake Center
12:05AM 41.6414 -107.7497 80° East 489 563 45,000  Level Denver Center
12:06AM 41.6642 -107.5789 80° East 489 563 45,000  Level Denver Center
12:08AM 41.6903 -107.3764 80° East 494 568 45,000  Level Denver Center
12:09AM 41.7119 -107.2036 80° East 493 567 45,000  Level Denver Center
12:10AM 41.7347 -107.0317 80° East 492 566 45,000  Level Denver Center
12:11AM 41.7589 -106.8347 81° East 481 554 45,000  Level Denver Center
12:12AM 41.7869 -106.6072 81° East 488 562 45,000  Level Denver Center
12:13AM 41.8083 -106.4411 80° East 494 568 45,000  Level Denver Center
12:14AM 41.8289 -106.2392 82° East 491 565 45,000  Level Denver Center
12:15AM 41.8544 -106.0422 80° East 484 557 45,000  Level Denver Center
12:16AM 41.8783 -105.8436 81° East 483 556 45,000  Level Denver Center
12:17AM 41.8975 -105.6725 81° East 485 558 45,000  Level Denver Center
12:18AM 41.9164 -105.5033 81° East 481 554 45,000  Level Denver Center
12:19AM 41.9372 -105.3064 82° East 480 552 45,000  Level Denver Center
12:20AM 41.9567 -105.1347 81° East 485 558 45,000  Level Denver Center
12:21AM 41.9778 -104.9333 82° East 489 563 45,000  Level Denver Center
12:22AM 41.9953 -104.7606 82° East 490 564 45,000  Level Denver Center
12:23AM 42.0164 -104.5558 82° East 495 570 45,000  Level Denver Center
12:24AM 42.0339 -104.3836 82° East 490 564 45,000  Level Denver Center
12:25AM 42.0519 -104.2122 82° East 486 559 45,000  Level Denver Center
12:26AM 42.0719 -104.0147 82° East 482 555 45,000  Level Denver Center
12:27AM 42.0886 -103.8425 83° East 485 558 45,000  Level Denver Center
12:28AM 42.1075 -103.6414 83° East 487 560 45,000  Level Denver Center
12:29AM 42.1239 -103.4664 83° East 493 567 45,000  Level Denver Center
12:30AM 42.1403 -103.2886 83° East 498 573 45,000  Level Denver Center
12:31AM 42.1589 -103.0836 83° East 495 570 45,000  Level Denver Center
12:32AM 42.1747 -102.9089 83° East 493 567 45,000  Level Denver Center
12:33AM 42.1908 -102.7314 83° East 498 573 45,000  Level Denver Center
12:34AM 42.2086 -102.5267 83° East 495 570 45,000  Level Denver Center
12:35AM 42.2228 -102.3494 84° East 498 573 45,000  Level Denver Center
12:36AM 42.2397 -102.1533 83° East 492 566 45,000  Level Denver Center
12:37AM 42.2542 -101.9778 84° East 492 566 45,000  Level Denver Center
12:39AM 42.2708 -101.7697 84° East 498 573 45,000  Level Denver Center
12:40AM 42.2844 -101.5917 84° East 499 574 45,000  Level Denver Center
12:41AM 42.2978 -101.4161 84° East 491 565 45,000  Level Denver Center
12:42AM 42.3139 -101.2117 84° East 489 563 45,000  Level Denver Center
12:43AM 42.3253 -101.0381 85° East 485 558 45,000  Level Denver Center
12:44AM 42.3378 -100.8631 84° East 487 560 45,000  Level Denver Center
12:45AM 42.3522 -100.6578 84° East 490 564 45,000  Level Denver Center
12:46AM 42.3636 -100.4911 85° East 491 565 45,000  Level Minneapolis Center
12:47AM 42.3761 -100.3053 85° East 494 568 45,000  Level Minneapolis Center
12:48AM 42.3872 -100.1217 85° East 491 565 45,000  Level Minneapolis Center
12:49AM 42.3994 -99.9364 85° East 493 567 45,000  Level Minneapolis Center
12:50AM 42.4108 -99.7489 85° East 497 572 45,000  Level Minneapolis Center
12:51AM 42.4217 -99.5636 85° East 494 568 45,000  Level Minneapolis Center
12:52AM 42.4328 -99.3761 85° East 498 573 45,000  Level Minneapolis Center
12:53AM 42.4439 -99.1886 85° East 499 574 45,000  Level Minneapolis Center
12:54AM 42.4544 -99.0011 86° East 497 572 45,000  Level Minneapolis Center
12:55AM 42.4644 -98.8100 86° East 505 581 45,000  Level Minneapolis Center
12:56AM 42.4739 -98.6192 86° East 506 582 45,000  Level Minneapolis Center
12:57AM 42.4833 -98.4283 86° East 506 582 45,000  Level Minneapolis Center
12:58AM 42.4925 -98.2406 86° East 500 575 45,000  Level Minneapolis Center
12:59AM 42.5025 -98.0514 86° East 502 578 45,000  Level Minneapolis Center
01:00AM 42.5100 -97.8619 87° East 501 577 45,000  Level Minneapolis Center
01:01AM 42.5178 -97.6822 87° East 502 578 45,000  Level Minneapolis Center
01:02AM 42.5261 -97.4922 87° East 503 579 45,000  Level Minneapolis Center
01:03AM 42.5333 -97.3047 87° East 498 573 45,000  Level Minneapolis Center
01:04AM 42.5408 -97.1178 87° East 497 572 45,000  Level Minneapolis Center
01:05AM 42.5500 -96.8556 87° East 497 572 45,000  Level Minneapolis Center
01:06AM 42.5564 -96.6664 87° East 500 575 45,000  Level Minneapolis Center
01:07AM 42.5614 -96.5153 87° East 500 575 45,000  Level Minneapolis Center
01:08AM 42.5675 -96.3267 87° East 500 575 45,000  Level Minneapolis Center
01:09AM 42.5731 -96.1350 88° East 502 578 45,000  Level Minneapolis Center
01:10AM 42.5789 -95.9478 88° East 502 578 45,000  Level Minneapolis Center
01:11AM 42.5839 -95.7583 88° East 502 578 45,000  Level Minneapolis Center
01:12AM 42.5878 -95.5669 88° East 505 581 45,000  Level Minneapolis Center
01:13AM 42.5922 -95.3786 88° East 501 577 45,000  Level Minneapolis Center
01:14AM 42.5967 -95.1914 88° East 498 573 45,000  Level Minneapolis Center
01:15AM 42.5994 -95.0039 89° East 497 572 45,000  Level Minneapolis Center
01:16AM 42.6039 -94.8169 88° East 496 571 45,000  Level Minneapolis Center
01:17AM 42.6064 -94.6286 89° East 498 573 45,000  Level Minneapolis Center
01:18AM 42.6081 -94.4247 89° East 501 577 45,000  Level Minneapolis Center
01:19AM 42.6086 -94.2383 90° East 499 574 45,000  Level Minneapolis Center
01:20AM 42.5994 -94.0503 94° East 502 578 45,000  Level Minneapolis Center
01:21AM 42.5903 -93.8603 94° East 507 583 45,000  Level Minneapolis Center
01:22AM 42.5808 -93.6708 94° East 508 585 45,000  Level Minneapolis Center
01:23AM 42.5725 -93.4817 93° East 507 583 45,000  Level Minneapolis Center
01:24AM 42.5639 -93.2925 93° East 508 585 45,000  Level Minneapolis Center
01:25AM 42.5494 -93.1019 96° East 509 586 45,000  Level Chicago Center
01:26AM 42.5422 -92.9131 93° East 508 585 45,000  Level Chicago Center
01:27AM 42.5322 -92.7239 94° East 509 586 45,000  Level Chicago Center
01:28AM 42.5217 -92.5356 94° East 509 586 45,000  Level Chicago Center
01:29AM 42.5108 -92.3475 94° East 508 585 45,000  Level Chicago Center
01:30AM 42.4992 -92.1586 95° East 511 588 45,000  Level Chicago Center
01:31AM 42.4883 -91.9708 94° East 509 586 45,000  Level Chicago Center
01:32AM 42.4739 -91.7486 95° East 506 582 45,000  Level Chicago Center
01:33AM 42.4619 -91.5631 95° East 506 582 45,000  Level Chicago Center
01:34AM 42.4489 -91.3744 95° East 512 589 45,000  Level Chicago Center
01:35AM 42.4353 -91.1892 96° East 507 583 45,000  Level Chicago Center
01:36AM 42.4225 -91.0019 95° East 507 583 45,000  Level Chicago Center
01:37AM 42.4081 -90.8119 96° East 512 589 45,000  Level Chicago Center
01:38AM 42.3936 -90.6208 96° East 516 594 45,000  Level Chicago Center
01:39AM 42.3853 -90.4292 93° East 517 595 45,000  Level Chicago Center
01:40AM 42.3739 -90.2369 95° East 518 596 45,000  Level Chicago Center
01:41AM 42.3628 -90.0464 94° East 516 594 45,000  Level Chicago Center
01:42AM 42.3528 -89.8439 94° East 513 590 45,000  Level Chicago Center
01:43AM 42.3403 -89.6558 95° East 506 582 45,000  Level Chicago Center
01:44AM 42.3286 -89.4650 95° East 509 586 45,000  Level Chicago Center
01:45AM 42.3164 -89.2722 95° East 515 593 45,000  Level Chicago Center
01:46AM 42.3031 -89.0783 95° East 520 598 45,000  Level Chicago Center
01:47AM 42.2900 -88.8875 95° East 514 592 45,000  Level Chicago Center
01:48AM 42.2786 -88.7097 95° East 514 592 45,000  Level Chicago Center
01:49AM 42.2619 -88.4797 96° East 513 590 45,000  Level Chicago Center
01:50AM 42.2469 -88.2897 96° East 511 588 45,000  Level Chicago Center
01:51AM 42.2331 -88.0997 96° East 510 587 45,000  Level Chicago Center
01:52AM 42.2186 -87.9078 96° East 513 590 45,000  Level Chicago Center
01:53AM 42.2083 -87.7167 94° East 513 590 45,000  Level Chicago Center
01:54AM 42.1983 -87.5247 94° East 514 592 45,000  Level Chicago Center
01:55AM 42.1875 -87.3322 94° East 516 594 45,000  Level Chicago Center
01:56AM 42.1764 -87.1394 94° East 518 596 45,000  Level Chicago Center
01:57AM 42.1644 -86.9456 95° East 520 598 45,000  Level Chicago Center
01:58AM 42.1583 -86.7528 92° East 519 597 45,000  Level Chicago Center
01:59AM 42.1603 -86.5622 89° East 523 602 45,000  Level Chicago Center
02:00AM 42.1603 -86.3678 90° East 520 598 45,000  Level Chicago Center
02:01AM 42.1606 -86.1744 90° East 518 596 45,000  Level Chicago Center
02:02AM 42.1608 -85.9781 90° East 521 600 45,000  Level Chicago Center
02:03AM 42.1594 -85.8006 91° East 521 600 45,000  Level Chicago Center
02:04AM 42.1589 -85.6072 90° East 520 598 45,000  Level Chicago Center
02:05AM 42.1583 -85.4150 90° East 516 594 45,000  Level Chicago Center
02:06AM 42.1578 -85.2208 90° East 521 600 45,000  Level Chicago Center
02:07AM 42.1564 -85.0214 90° East 523 602 45,000  Level Chicago Center
02:08AM 42.1553 -84.8333 90° East 518 596 45,000  Level Chicago Center
02:09AM 42.1539 -84.6386 90° East 522 601 45,000  Level Chicago Center
02:10AM 42.1506 -84.4442 91° East 522 601 45,000  Level Chicago Center
02:11AM 42.1444 -84.2772 93° East 516 594 45,000  Level Cleveland Center
02:12AM 42.1400 -84.0836 92° East 516 594 45,000  Level Cleveland Center
02:13AM 42.1375 -83.8875 91° East 516 594 45,000  Level Cleveland Center
02:14AM 42.1325 -83.6911 92° East 516 594 45,000  Level Cleveland Center
02:15AM 42.1289 -83.5147 92° East 522 601 45,000  Level Cleveland Center
02:16AM 42.1253 -83.3214 91° East 517 595 45,000  Level Cleveland Center
02:17AM 42.1194 -83.1194 92° East 517 595 45,000  Level Cleveland Center
02:18AM 42.1153 -82.9261 92° East 517 595 45,000  Level Cleveland Center
02:19AM 42.1128 -82.7300 91° East 517 595 45,000  Level Cleveland Center
02:20AM 42.0997 -82.5336 95° East 517 595 45,000  Level Cleveland Center
02:21AM 42.0986 -82.3350 90° East 517 595 45,000  Level Cleveland Center
02:22AM 42.0933 -82.1250 92° East 517 595 45,000  Level Cleveland Center
02:23AM 42.0856 -81.9289 93° East 517 595 45,000  Level Cleveland Center
02:24AM 42.0789 -81.7553 93° East 517 595 45,000  Level Cleveland Center
02:25AM 42.0725 -81.5594 92° East 517 595 45,000  Level Cleveland Center
02:26AM 42.0636 -81.3606 93° East 522 601 45,000  Level Cleveland Center
02:27AM 42.0503 -81.1703 95° East 522 601 45,000  Level Cleveland Center
02:28AM 42.0344 -80.9717 96° East 522 601 45,000  Level Cleveland Center
02:29AM 42.0183 -80.7536 96° East 532 612 45,000  Level Cleveland Center
02:30AM 42.0036 -80.5553 96° East 532 612 45,000  Level Cleveland Center
02:31AM 41.9847 -80.3569 97° East 540 621 45,000  Level Cleveland Center
02:33AM 41.9542 -79.9578 96° East 540 621 45,000  Level Cleveland Center
02:34AM 41.9383 -79.7736 97° East 546 628 45,000  Level Cleveland Center
02:35AM 41.9200 -79.5731 97° East 546 628 45,000  Level Cleveland Center
02:36AM 41.9014 -79.3725 97° East 546 628 45,000  Level Cleveland Center
02:37AM 41.8822 -79.1525 97° East 541 623 45,000  Level Cleveland Center
02:38AM 41.8631 -78.9494 97° East 541 623 45,000  Level Cleveland Center
02:39AM 41.8456 -78.7686 97° East 547 629 45,000  Level Cleveland Center
02:40AM 41.8275 -78.5656 97° East 547 629 45,000 -120 Level Cleveland Center
02:41AM 41.8072 -78.3658 98° East 547 629 44,800 -840 Descending Cleveland Center
02:42AM 41.7867 -78.1658 98° East 547 629 43,400 -1,920 Descending Cleveland Center
02:43AM 41.7522 -77.8472 98° East 540 621 40,000 -2,040 Descending New York Center
02:44AM 41.7325 -77.6506 98° East 540 621 38,300 -1,740 Descending New York Center
02:45AM 41.7106 -77.4508 98° East 540 621 36,500 -1,980 Descending New York Center
02:46AM 41.6903 -77.2517 98° East 540 621 34,500 -2,160 Descending New York Center
02:47AM 41.6511 -77.0506 105° East 546 628 32,300 -2,220 Descending New York Center
02:48AM 41.6003 -76.8656 110° East 551 634 30,100 -2,100 Descending New York Center
02:49AM 41.5600 -76.7178 110° East 539 620 28,100 -2,220 Descending New York Center
02:50AM 41.5108 -76.5333 110° East 508 585 25,700 -2,220 Descending New York Center
02:51AM 41.4644 -76.3658 110° East 490 564 23,700 -2,040 Descending New York Center
02:52AM 41.4144 -76.1875 110° East 479 551 21,700 -1,980 Descending New York Center
02:53AM 41.3692 -76.0372 112° Southeast 453 521 19,800 -1,920 Descending New York Center
02:54AM 41.3297 -75.8906 110° East 436 502 17,900 -1,920 Descending New York Center
02:55AM 41.2900 -75.7522 111° Southeast 415 478 16,000 -1,800 Descending New York Center
02:56AM 41.2531 -75.6336 112° Southeast 395 455 14,300 -1,560 Descending New York Center
02:57AM 41.2106 -75.5036 113° Southeast 381 438 13,000 -1,440 Descending New York Center
02:58AM 41.1639 -75.3625 114° Southeast 375 432 11,500 -1,560 Descending New York Center
02:59AM 41.1283 -75.2583 114° Southeast 340 391 10,000 -1,500 Descending New York Center
03:00AM 41.0947 -75.1569 114° Southeast 309 356 8,600 -1,380 Descending New York Center
03:01AM 41.0647 -75.0697 114° Southeast 291 335 7,300 -1,320 Descending New York Center
03:02AM 41.0308 -74.9683 114° Southeast 280 322 6,000 -720 Descending New York Center
03:03AM 41.0003 -74.8842 116° Southeast 280 322 6,000 -360 Level New York Center
03:04AM 40.9600 -74.7883 119° Southeast 275 316 5,400 -600 Descending New York Center
03:05AM 40.9247 -74.7175 123° Southeast 269 310 4,800 -840 Descending New York Center
03:06AM 40.8839 -74.6328 122° Southeast 256 295 3,800 -900 Descending New York Center
03:07AM 40.8500 -74.5667 124° Southeast 248 285 3,100 -420 Descending New York TRACON
03:08AM 40.8167 -74.4833 118° Southeast 242 278 3,100  Level New York TRACON
03:09AM 40.7833 -74.4167 123° Southeast 240 276 3,100 -300 Level New York TRACON
03:10AM 40.7500 -74.3500 123° Southeast 198 228 2,600 -540 Descending New York TRACON
03:11AM 40.7333 -74.3000 114° Southeast 170 196 2,100 -360 Descending New York TRACON
03:12AM 40.7500 -74.2333 72° East 170 196 1,900 -300 Descending New York TRACON
03:13AM 40.7667 -74.1833 66° East 159 183 1,600 -240 Descending New York TRACON
03:14AM 40.8000 -74.1500 37° Northeast 149 171 1,500 -360 Descending New York TRACON
03:15AM 40.8167 -74.1000 66° East 128 147 900 -600 Descending New York TRACON
03:17AM 40.8500 -74.0500 102° East  Level FlightAware Approximate
03:24AM 40.8501 -74.0608 102° East  Level Estimated
03:25AM 40.8501 -74.0608 102° East  Level Estimated